Time;durP1;ratioP1;P1;durP2;ratioP2;P2;SDS_P1;SDS_P2;PMS_P1;PMS_P2;Temp;Humidity;BMP_temperature;BMP_pressure;BME280_temperature;BME280_humidity;BME280_pressure;Samples;Min_cycle;Max_cycle;Signal;HPM_P1;HPM_P2
2023/05/25 00:00:06;;;;;;;6.72;2.60;;;;;;;11.70;60.10;99948.03;331859;28;15895;-67
2023/05/25 00:00:19;;;;;;;6.97;2.92;;;;;;;11.68;60.72;99948.06;334262;28;4684;-67
2023/05/25 00:00:31;;;;;;;5.72;2.85;;;;;;;11.69;60.94;99943.72;332291;28;19207;-69
2023/05/25 00:00:43;;;;;;;6.20;2.78;;;;;;;11.70;61.21;99940.22;334681;28;4754;-68
2023/05/25 00:01:11;;;;;;;8.15;2.63;;;;;;;11.71;61.39;99947.13;331318;28;17095;-68
2023/05/25 00:01:25;;;;;;;9.63;2.72;;;;;;;11.71;61.37;99953.19;334292;28;5412;-68
2023/05/25 00:01:37;;;;;;;6.35;2.50;;;;;;;11.73;60.96;99940.09;331727;28;18060;-68
2023/05/25 00:01:53;;;;;;;4.78;2.33;;;;;;;11.72;61.47;99947.06;335084;28;9078;-68
2023/05/25 00:02:05;;;;;;;5.82;2.50;;;;;;;11.75;61.50;99943.50;332739;28;17947;-68
2023/05/25 00:02:17;;;;;;;6.57;2.65;;;;;;;11.75;61.62;99946.13;334920;28;8536;-67
2023/05/25 00:02:32;;;;;;;7.40;2.67;;;;;;;11.75;61.30;99948.72;333954;28;9557;-68
2023/05/25 00:02:47;;;;;;;6.40;2.72;;;;;;;11.75;61.11;99948.72;333232;28;11618;-68
2023/05/25 00:02:59;;;;;;;5.65;2.83;;;;;;;11.75;60.93;99943.50;334547;28;6274;-68
2023/05/25 00:03:11;;;;;;;5.60;2.78;;;;;;;11.78;60.87;99948.63;336403;28;5222;-67
2023/05/25 00:03:26;;;;;;;6.60;2.80;;;;;;;11.78;61.18;99940.81;336443;28;4514;-70
2023/05/25 00:03:39;;;;;;;6.90;2.70;;;;;;;11.79;61.33;99945.13;334166;28;18087;-67
2023/05/25 00:03:54;;;;;;;7.70;2.75;;;;;;;11.80;61.39;99952.03;333917;28;18408;-68
2023/05/25 00:04:09;;;;;;;7.97;2.80;;;;;;;11.80;61.22;99942.47;334626;28;19155;-68
2023/05/25 00:04:25;;;;;;;6.73;2.67;;;;;;;11.83;60.84;99936.31;334609;28;18066;-69
2023/05/25 00:04:37;;;;;;;5.95;2.53;;;;;;;11.83;61.04;99945.88;333415;28;17816;-67
2023/05/25 00:04:50;;;;;;;6.20;2.80;;;;;;;11.84;60.88;99937.16;333577;28;18239;-68
2023/05/25 00:05:03;;;;;;;7.47;2.90;;;;;;;11.82;61.11;99944.19;336074;28;5288;-68
2023/05/25 00:05:17;;;;;;;7.93;2.92;;;;;;;11.83;60.80;99944.13;333655;28;5249;-68
2023/05/25 00:05:29;;;;;;;6.43;2.85;;;;;;;11.84;61.20;99951.03;335932;28;4828;-69
2023/05/25 00:05:43;;;;;;;5.78;2.78;;;;;;;11.83;61.19;99936.31;332986;28;18253;-67
2023/05/25 00:06:02;;;;;;;5.43;2.55;;;;;;;11.85;61.60;99944.06;332889;28;18106;-68
2023/05/25 00:06:14;;;;;;;5.65;2.40;;;;;;;11.86;61.23;99940.56;331516;28;18262;-69
2023/05/25 00:06:26;;;;;;;6.07;2.63;;;;;;;11.86;61.17;99941.41;332305;28;19362;-68
2023/05/25 00:06:41;;;;;;;5.82;2.78;;;;;;;11.85;60.82;99944.94;334612;28;5257;-68
2023/05/25 00:06:53;;;;;;;6.88;2.80;;;;;;;11.84;61.16;99938.00;330934;28;19071;-68
2023/05/25 00:07:05;;;;;;;7.65;2.83;;;;;;;11.85;61.17;99938.84;330737;28;18108;-70
2023/05/25 00:07:17;;;;;;;7.22;2.83;;;;;;;11.82;61.18;99939.81;334286;28;5361;-69
2023/05/25 00:07:29;;;;;;;6.78;2.80;;;;;;;11.82;60.86;99942.41;333223;28;16354;-68
2023/05/25 00:07:42;;;;;;;5.10;2.80;;;;;;;11.81;60.40;99943.31;335773;28;6471;-67
2023/05/25 00:07:54;;;;;;;4.78;2.70;;;;;;;11.82;60.81;99939.81;334452;28;5687;-68
2023/05/25 00:08:06;;;;;;;5.93;2.70;;;;;;;11.80;60.40;99939.03;331241;28;19465;-68
2023/05/25 00:08:18;;;;;;;7.30;2.80;;;;;;;11.80;60.76;99939.03;335477;28;5625;-69
2023/05/25 00:08:30;;;;;;;7.45;2.67;;;;;;;11.78;61.03;99943.44;330634;28;17137;-69
2023/05/25 00:08:42;;;;;;;8.15;2.72;;;;;;;11.78;60.85;99944.28;333264;28;4657;-68
2023/05/25 00:08:56;;;;;;;8.32;2.75;;;;;;;11.78;60.81;99938.22;331742;28;4942;-68
2023/05/25 00:09:08;;;;;;;6.40;2.60;;;;;;;11.80;60.70;99939.03;333425;28;6093;-67
2023/05/25 00:09:20;;;;;;;5.63;2.53;;;;;;;11.79;61.41;99937.31;332367;28;5503;-67
2023/05/25 00:09:33;;;;;;;6.47;2.58;;;;;;;11.80;61.11;99944.22;334048;28;4579;-67
2023/05/25 00:09:45;;;;;;;8.85;2.70;;;;;;;11.79;61.52;99939.91;331297;28;18679;-68
2023/05/25 00:09:58;;;;;;;7.55;2.60;;;;;;;11.76;61.28;99938.25;334692;28;4637;-68
2023/05/25 00:10:10;;;;;;;5.22;2.58;;;;;;;11.78;60.73;99944.28;331993;28;16281;-67
2023/05/25 00:10:22;;;;;;;5.53;2.70;;;;;;;11.80;61.16;99941.63;334481;28;4628;-68
2023/05/25 00:10:35;;;;;;;6.35;2.60;;;;;;;11.81;61.64;99948.50;331321;28;17999;-67
2023/05/25 00:10:47;;;;;;;6.80;2.55;;;;;;;11.82;61.04;99949.38;333656;28;4637;-68
2023/05/25 00:10:59;;;;;;;6.68;2.58;;;;;;;11.83;61.52;99944.13;332356;28;10347;-68
2023/05/25 00:11:11;;;;;;;4.78;2.55;;;;;;;11.83;61.21;99940.66;335019;28;4675;-68
2023/05/25 00:11:25;;;;;;;4.85;2.55;;;;;;;11.84;60.86;99935.41;337253;28;4546;-67
2023/05/25 00:11:37;;;;;;;6.10;2.67;;;;;;;11.84;61.04;99945.81;333833;28;18443;-68
2023/05/25 00:11:51;;;;;;;7.20;2.70;;;;;;;11.84;61.37;99938.00;334693;28;9899;-68
2023/05/25 00:12:03;;;;;;;6.15;2.75;;;;;;;11.83;61.20;99946.75;337357;28;4814;-69
2023/05/25 00:12:15;;;;;;;6.03;2.80;;;;;;;11.85;61.12;99944.94;334362;28;18193;-69
2023/05/25 00:12:27;;;;;;;7.00;2.92;;;;;;;11.86;60.89;99941.41;337029;28;4798;-69
2023/05/25 00:12:39;;;;;;;7.88;2.80;;;;;;;11.87;61.04;99942.25;335404;28;9966;-68
2023/05/25 00:12:51;;;;;;;10.20;2.85;;;;;;;11.88;60.68;99943.97;334751;28;18287;-68
2023/05/25 00:13:03;;;;;;;8.70;2.83;;;;;;;11.87;60.77;99944.88;337268;28;5135;-68
2023/05/25 00:13:15;;;;;;;8.73;2.65;;;;;;;11.84;61.18;99943.22;334401;28;9415;-69
2023/05/25 00:13:27;;;;;;;8.10;2.47;;;;;;;11.86;61.36;99943.19;336159;28;4527;-68
2023/05/25 00:13:39;;;;;;;7.60;2.50;;;;;;;11.85;60.80;99950.16;333505;28;4561;-68
2023/05/25 00:13:52;;;;;;;5.43;2.50;;;;;;;11.85;60.55;99939.72;333803;28;18246;-69
2023/05/25 00:14:04;;;;;;;5.57;2.58;;;;;;;11.81;61.30;99951.13;335016;28;4652;-68
2023/05/25 00:14:16;;;;;;;7.38;2.65;;;;;;;11.78;60.71;99939.06;331837;28;18244;-67
2023/05/25 00:14:29;;;;;;;7.40;2.60;;;;;;;11.78;60.34;99948.63;334927;28;4625;-67
2023/05/25 00:14:41;;;;;;;8.38;2.90;;;;;;;11.72;59.99;99943.63;331852;28;17937;-67
2023/05/25 00:14:53;;;;;;;8.48;3.03;;;;;;;11.75;60.28;99943.50;334697;28;4601;-67
2023/05/25 00:15:06;;;;;;;6.38;2.67;;;;;;;11.73;60.77;99940.97;333332;28;10068;-68
2023/05/25 00:15:18;;;;;;;8.10;2.80;;;;;;;11.76;60.96;99942.63;336070;28;5453;-67
2023/05/25 00:15:30;;;;;;;8.05;2.70;;;;;;;11.75;60.98;99943.50;334608;28;19336;-68
2023/05/25 00:15:42;;;;;;;7.57;2.53;;;;;;;11.76;60.63;99940.88;337220;28;5228;-67
2023/05/25 00:15:54;;;;;;;6.95;2.55;;;;;;;11.77;60.36;99944.31;336966;28;11728;-68
2023/05/25 00:16:06;;;;;;;7.55;2.58;;;;;;;11.74;60.35;99937.47;335201;28;19554;-69
2023/05/25 00:16:18;;;;;;;7.40;2.45;;;;;;;11.75;60.70;99946.13;336043;28;5219;-68
2023/05/25 00:16:30;;;;;;;8.30;2.50;;;;;;;11.75;60.55;99946.13;333690;28;4531;-68
2023/05/25 00:16:44;;;;;;;7.95;2.65;;;;;;;11.73;60.49;99945.31;336059;28;4640;-68
2023/05/25 00:16:57;;;;;;;8.50;2.83;;;;;;;11.74;60.05;99947.03;333851;28;17856;-67
2023/05/25 00:17:10;;;;;;;6.82;2.90;;;;;;;11.73;60.05;99940.97;335634;28;4517;-71
2023/05/25 00:17:23;;;;;;;5.68;2.60;;;;;;;11.75;60.51;99949.59;332591;28;18295;-67
2023/05/25 00:17:36;;;;;;;6.63;2.60;;;;;;;11.73;60.33;99942.72;330654;28;19009;-70
2023/05/25 00:17:48;;;;;;;7.50;2.85;;;;;;;11.75;60.17;99947.00;333841;28;4532;-68
2023/05/25 00:18:00;;;;;;;6.70;2.80;;;;;;;11.75;60.55;99948.72;331342;28;16345;-71
2023/05/25 00:18:12;;;;;;;6.22;2.78;;;;;;;11.75;60.71;99943.50;334783;28;4639;-68
2023/05/25 00:18:24;;;;;;;4.65;2.55;;;;;;;11.77;60.30;99945.19;334755;28;4666;-68
2023/05/25 00:18:39;;;;;;;5.93;2.50;;;;;;;11.76;60.09;99940.88;332615;28;19283;-68
2023/05/25 00:18:51;;;;;;;7.90;2.70;;;;;;;11.79;60.30;99945.13;331626;28;18096;-68
2023/05/25 00:19:04;;;;;;;8.52;2.60;;;;;;;11.79;60.42;99942.50;334873;28;4553;-68
2023/05/25 00:19:19;;;;;;;7.63;2.45;;;;;;;11.78;60.66;99944.28;332911;28;18099;-69
2023/05/25 00:19:32;;;;;;;6.25;2.42;;;;;;;11.78;60.33;99943.44;332202;28;16537;-68
2023/05/25 00:19:44;;;;;;;6.20;2.50;;;;;;;11.79;60.16;99945.13;331634;28;10205;-68
2023/05/25 00:20:06;;;;;;;6.60;2.50;;;;;;;11.80;60.71;99941.63;335127;28;5299;-69
2023/05/25 00:20:18;;;;;;;6.70;2.50;;;;;;;11.80;60.43;99941.63;332143;28;17818;-67
2023/05/25 00:20:31;;;;;;;5.78;2.40;;;;;;;11.80;60.42;99944.22;332839;28;18171;-67
2023/05/25 00:20:44;;;;;;;8.50;2.75;;;;;;;11.78;60.58;99944.28;336176;28;4664;-68
2023/05/25 00:20:57;;;;;;;10.57;2.83;;;;;;;11.79;60.78;99945.13;333534;28;18059;-69
2023/05/25 00:21:09;;;;;;;9.15;2.42;;;;;;;11.79;60.30;99945.13;335808;28;5571;-67
2023/05/25 00:21:23;;;;;;;6.72;2.38;;;;;;;11.76;59.94;99945.22;333791;28;18050;-68
2023/05/25 00:21:36;;;;;;;5.97;2.47;;;;;;;11.73;60.06;99945.31;333225;28;17707;-68
2023/05/25 00:21:49;;;;;;;5.05;2.80;;;;;;;11.71;60.48;99936.69;336012;28;5829;-68
2023/05/25 00:22:02;;;;;;;5.45;2.80;;;;;;;11.71;60.54;99948.00;332314;28;18613;-68
2023/05/25 00:22:14;;;;;;;6.00;2.70;;;;;;;11.73;60.44;99940.09;333825;28;5557;-68
2023/05/25 00:22:27;;;;;;;5.65;2.55;;;;;;;11.75;60.54;99944.38;332896;28;18691;-67
2023/05/25 00:22:44;;;;;;;5.20;2.70;;;;;;;11.75;60.46;99943.50;332387;28;5308;-68
2023/05/25 00:22:56;;;;;;;8.60;2.83;;;;;;;11.73;60.23;99940.09;331973;28;17715;-69
2023/05/25 00:23:09;;;;;;;9.10;2.70;;;;;;;11.75;60.27;99939.19;334972;28;4613;-68
2023/05/25 00:23:21;;;;;;;7.43;2.47;;;;;;;11.75;60.01;99940.91;331102;28;19153;-67
2023/05/25 00:23:33;;;;;;;6.28;2.33;;;;;;;11.75;60.98;99938.31;333627;28;4607;-68
2023/05/25 00:23:45;;;;;;;6.07;2.38;;;;;;;11.76;60.46;99937.41;331256;28;16703;-67
2023/05/25 00:23:57;;;;;;;5.80;3.03;;;;;;;11.75;60.84;99939.19;333916;28;4695;-68
2023/05/25 00:24:09;;;;;;;6.53;3.10;;;;;;;11.75;60.54;99939.19;333577;28;5268;-68
2023/05/25 00:24:21;;;;;;;8.75;2.97;;;;;;;11.77;60.33;99936.50;331713;28;18391;-68
2023/05/25 00:24:33;;;;;;;9.35;2.85;;;;;;;11.77;60.91;99941.72;335419;28;4614;-69
2023/05/25 00:24:48;;;;;;;8.45;2.80;;;;;;;11.75;61.51;99938.31;332117;28;18121;-68
2023/05/25 00:25:00;;;;;;;6.00;2.55;;;;;;;11.76;61.29;99940.03;333625;28;9158;-67
2023/05/25 00:25:12;;;;;;;5.78;2.50;;;;;;;11.76;61.07;99940.03;335397;28;4664;-69
2023/05/25 00:25:24;;;;;;;5.97;2.60;;;;;;;11.76;61.29;99932.22;334823;28;5354;-68
2023/05/25 00:25:36;;;;;;;7.03;2.90;;;;;;;11.76;61.41;99932.22;332296;28;18239;-68
2023/05/25 00:25:48;;;;;;;7.40;2.75;;;;;;;11.74;61.60;99932.25;334913;28;5380;-68
2023/05/25 00:26:02;;;;;;;7.32;2.70;;;;;;;11.76;61.75;99934.81;333051;28;18157;-68
2023/05/25 00:26:14;;;;;;;7.72;2.88;;;;;;;11.74;61.80;99932.25;334459;28;5188;-68
2023/05/25 00:26:26;;;;;;;7.30;2.83;;;;;;;11.75;61.66;99933.09;332179;28;17617;-67
2023/05/25 00:26:38;;;;;;;7.68;2.83;;;;;;;11.75;61.74;99938.31;333414;28;5173;-68
2023/05/25 00:26:50;;;;;;;7.78;2.80;;;;;;;11.77;61.58;99931.28;331186;28;18302;-68
2023/05/25 00:27:02;;;;;;;6.78;2.72;;;;;;;11.79;61.22;99934.69;334729;28;5245;-67
2023/05/25 00:27:14;;;;;;;7.45;2.80;;;;;;;11.79;61.35;99939.91;335378;28;5221;-67
2023/05/25 00:27:26;;;;;;;7.88;2.63;;;;;;;11.79;60.77;99937.31;333691;28;18202;-67
2023/05/25 00:27:38;;;;;;;6.88;2.47;;;;;;;11.80;60.85;99941.63;335918;28;4518;-67
2023/05/25 00:27:50;;;;;;;5.90;2.40;;;;;;;11.78;61.16;99935.63;332179;28;5912;-68
2023/05/25 00:28:03;;;;;;;5.05;2.50;;;;;;;11.78;60.57;99938.22;335740;28;4681;-68
2023/05/25 00:28:15;;;;;;;6.05;2.60;;;;;;;11.79;60.83;99935.56;334444;28;17332;-68
2023/05/25 00:28:27;;;;;;;6.00;2.58;;;;;;;11.79;60.58;99934.69;337587;28;4973;-69
2023/05/25 00:28:39;;;;;;;5.97;2.45;;;;;;;11.79;60.71;99932.09;337378;28;5145;-69
2023/05/25 00:28:51;;;;;;;5.32;2.60;;;;;;;11.79;60.38;99932.09;334458;28;18280;-69
2023/05/25 00:29:03;;;;;;;5.82;2.75;;;;;;;11.79;60.49;99932.97;335947;28;4565;-68
2023/05/25 00:29:15;;;;;;;6.75;2.97;;;;;;;11.80;60.83;99931.19;333351;28;18477;-68
2023/05/25 00:29:28;;;;;;;6.75;3.05;;;;;;;11.81;60.57;99932.88;335445;28;4634;-68
2023/05/25 00:29:42;;;;;;;6.18;2.97;;;;;;;11.80;60.68;99931.19;333127;28;16254;-67
2023/05/25 00:29:55;;;;;;;6.57;2.88;;;;;;;11.80;60.86;99932.03;335995;28;4702;-67
2023/05/25 00:30:07;;;;;;;5.80;2.58;;;;;;;11.79;60.20;99930.38;333362;28;17921;-69
2023/05/25 00:30:19;;;;;;;6.65;2.67;;;;;;;11.80;60.16;99931.19;334990;28;4544;-68
2023/05/25 00:30:31;;;;;;;6.13;2.53;;;;;;;11.80;60.22;99926.00;331709;29;18137;-68
2023/05/25 00:30:43;;;;;;;6.57;2.60;;;;;;;11.79;60.47;99930.38;334761;28;7369;-68
2023/05/25 00:30:55;;;;;;;6.25;2.65;;;;;;;11.81;60.10;99927.69;332895;28;18212;-67
2023/05/25 00:31:08;;;;;;;6.85;2.70;;;;;;;11.82;60.45;99929.41;335220;28;4681;-68
2023/05/25 00:31:20;;;;;;;8.15;2.88;;;;;;;11.78;60.53;99927.78;332515;28;10546;-67
2023/05/25 00:31:34;;;;;;;8.85;3.05;;;;;;;11.77;61.14;99926.09;334660;28;4768;-67
2023/05/25 00:31:46;;;;;;;10.07;3.15;;;;;;;11.75;60.76;99928.75;331985;28;18196;-67
2023/05/25 00:31:58;;;;;;;8.40;2.85;;;;;;;11.74;60.90;99921.84;334922;28;5436;-67
2023/05/25 00:32:10;;;;;;;7.15;2.63;;;;;;;11.73;60.57;99924.47;332130;28;16460;-68
2023/05/25 00:32:22;;;;;;;6.47;2.67;;;;;;;11.75;61.19;99927.88;334935;28;4551;-68
2023/05/25 00:32:34;;;;;;;7.70;2.67;;;;;;;11.75;61.19;99922.69;334676;28;5416;-67
2023/05/25 00:32:46;;;;;;;6.93;2.67;;;;;;;11.77;60.90;99923.47;331653;28;19242;-70
2023/05/25 00:33:00;;;;;;;6.28;2.72;;;;;;;11.74;60.87;99926.19;335020;28;5050;-67
2023/05/25 00:33:12;;;;;;;7.03;2.83;;;;;;;11.73;60.62;99919.28;331959;28;18251;-67
2023/05/25 00:33:24;;;;;;;6.95;2.80;;;;;;;11.73;60.86;99919.28;334720;28;4662;-67
2023/05/25 00:33:36;;;;;;;6.65;2.83;;;;;;;11.75;60.51;99927.88;332042;28;17932;-67
2023/05/25 00:33:49;;;;;;;7.13;2.65;;;;;;;11.64;59.88;99928.25;334958;28;4669;-68
2023/05/25 00:34:01;;;;;;;9.35;2.78;;;;;;;11.66;60.71;99923.84;332314;28;17900;-69
2023/05/25 00:34:13;;;;;;;9.57;3.03;;;;;;;11.63;61.33;99933.50;334508;28;4751;-68
2023/05/25 00:34:25;;;;;;;8.43;2.97;;;;;;;11.65;61.11;99929.97;332193;28;10680;-70
2023/05/25 00:34:37;;;;;;;7.32;2.72;;;;;;;11.64;61.07;99927.41;334645;28;4639;-68
2023/05/25 00:34:50;;;;;;;6.95;2.40;;;;;;;11.66;61.12;99934.25;333598;28;4748;-68
2023/05/25 00:35:02;;;;;;;5.97;2.30;;;;;;;11.67;61.30;99929.88;332664;28;17153;-67
2023/05/25 00:35:14;;;;;;;6.05;2.50;;;;;;;11.69;60.76;99930.69;334706;28;4585;-68
2023/05/25 00:35:26;;;;;;;6.47;2.58;;;;;;;11.68;60.42;99931.63;331791;28;18098;-67
2023/05/25 00:35:38;;;;;;;7.15;2.55;;;;;;;11.64;60.28;99930.00;334546;28;4676;-68
2023/05/25 00:35:51;;;;;;;5.63;2.53;;;;;;;11.62;59.80;99931.81;332127;28;9436;-68
2023/05/25 00:36:04;;;;;;;5.57;2.50;;;;;;;11.59;59.39;99925.81;336655;28;5477;-68
2023/05/25 00:36:16;;;;;;;6.70;2.80;;;;;;;11.61;60.10;99930.97;333633;28;18340;-68
2023/05/25 00:36:28;;;;;;;7.28;2.83;;;;;;;11.62;60.51;99926.59;336836;28;5115;-68
2023/05/25 00:36:42;;;;;;;8.90;2.72;;;;;;;11.63;60.78;99928.28;333317;28;10668;-68
2023/05/25 00:36:54;;;;;;;9.82;2.70;;;;;;;11.63;61.25;99933.50;335874;28;4650;-67
2023/05/25 00:37:06;;;;;;;9.85;2.70;;;;;;;11.62;60.89;99932.66;332901;28;18334;-68
2023/05/25 00:37:18;;;;;;;8.55;2.63;;;;;;;11.63;60.74;99933.50;336993;28;5576;-68
2023/05/25 00:37:30;;;;;;;8.60;2.67;;;;;;;11.65;60.49;99929.09;334784;28;10093;-67
2023/05/25 00:37:43;;;;;;;6.57;2.47;;;;;;;11.62;61.06;99927.44;336797;28;5116;-68
2023/05/25 00:37:55;;;;;;;7.45;2.53;;;;;;;11.62;61.33;99932.66;333208;28;17941;-69
2023/05/25 00:38:17;;;;;;;7.97;2.60;;;;;;;11.58;61.09;99933.66;336340;28;4748;-68
2023/05/25 00:38:29;;;;;;;7.00;2.38;;;;;;;11.56;61.60;99931.09;331608;28;17944;-67
2023/05/25 00:38:41;;;;;;;7.88;2.50;;;;;;;11.58;61.21;99926.69;330294;28;18533;-68
2023/05/25 00:38:53;;;;;;;7.78;2.55;;;;;;;11.58;60.38;99931.91;334184;28;4655;-67
2023/05/25 00:39:05;;;;;;;8.00;2.67;;;;;;;11.59;60.72;99933.63;330955;28;8728;-68
2023/05/25 00:39:18;;;;;;;8.27;2.60;;;;;;;11.62;60.99;99931.81;334290;28;4502;-67
2023/05/25 00:39:30;;;;;;;8.18;2.63;;;;;;;11.62;60.63;99926.59;332915;28;9911;-68
2023/05/25 00:39:42;;;;;;;8.70;2.60;;;;;;;11.63;60.77;99928.28;335586;28;5392;-67
2023/05/25 00:39:54;;;;;;;8.27;2.67;;;;;;;11.64;60.40;99928.25;335534;28;5595;-68
2023/05/25 00:40:13;;;;;;;7.32;2.70;;;;;;;11.64;60.43;99930.84;332602;28;18400;-67
2023/05/25 00:40:25;;;;;;;5.05;2.50;;;;;;;11.65;60.41;99929.97;330852;28;17726;-67
2023/05/25 00:40:39;;;;;;;5.82;2.60;;;;;;;11.66;60.46;99929.03;334688;28;4889;-67
2023/05/25 00:40:55;;;;;;;5.95;2.60;;;;;;;11.68;60.10;99931.63;333146;28;17876;-70
2023/05/25 00:41:07;;;;;;;4.90;2.55;;;;;;;11.68;60.10;99931.63;333050;28;17809;-69
2023/05/25 00:41:21;;;;;;;6.20;2.50;;;;;;;11.69;60.14;99933.28;336540;28;5387;-70
2023/05/25 00:41:33;;;;;;;5.90;2.28;;;;;;;11.68;60.09;99931.63;333716;28;18084;-68
2023/05/25 00:41:47;;;;;;;4.88;2.20;;;;;;;11.67;60.38;99929.88;334455;28;16631;-70
2023/05/25 00:42:01;;;;;;;5.90;2.47;;;;;;;11.66;60.46;99933.41;335857;28;5465;-67
2023/05/25 00:42:14;;;;;;;7.75;2.78;;;;;;;11.68;60.52;99926.41;333888;28;18046;-67
2023/05/25 00:42:26;;;;;;;7.25;2.67;;;;;;;11.67;60.07;99928.16;334208;28;18030;-71
2023/05/25 00:42:39;;;;;;;10.38;2.58;;;;;;;11.67;60.26;99930.78;336482;28;4627;-68
2023/05/25 00:42:51;;;;;;;10.90;2.38;;;;;;;11.65;59.87;99923.88;333036;28;4708;-68
2023/05/25 00:43:04;;;;;;;8.20;2.55;;;;;;;11.65;59.83;99929.09;334795;28;4572;-69
2023/05/25 00:43:16;;;;;;;6.72;2.63;;;;;;;11.66;61.03;99938.63;332220;28;16962;-68
2023/05/25 00:43:28;;;;;;;6.03;2.58;;;;;;;11.67;60.88;99927.28;335394;28;5204;-68
2023/05/25 00:43:40;;;;;;;6.90;2.63;;;;;;;11.66;60.86;99929.03;331715;28;10449;-68
2023/05/25 00:43:52;;;;;;;6.88;2.70;;;;;;;11.66;60.94;99934.25;334860;28;4689;-67
2023/05/25 00:44:04;;;;;;;8.20;2.80;;;;;;;11.68;60.87;99935.06;333903;28;4645;-68
2023/05/25 00:44:20;;;;;;;7.88;2.80;;;;;;;11.69;60.44;99928.97;332034;28;18173;-68
2023/05/25 00:44:32;;;;;;;4.93;2.60;;;;;;;11.67;61.52;99929.88;335727;28;17863;-67
2023/05/25 00:44:44;;;;;;;5.32;2.63;;;;;;;11.67;61.29;99930.78;334551;28;4736;-68
2023/05/25 00:44:56;;;;;;;6.75;2.70;;;;;;;11.67;61.19;99935.09;332399;28;18267;-67
2023/05/25 00:45:09;;;;;;;6.38;2.60;;;;;;;11.67;61.09;99932.50;334349;28;4712;-68
2023/05/25 00:45:21;;;;;;;5.40;2.40;;;;;;;11.62;60.43;99926.59;331468;28;17996;-71
2023/05/25 00:45:33;;;;;;;7.10;2.40;;;;;;;11.62;60.88;99929.22;334659;28;4698;-70
2023/05/25 00:45:46;;;;;;;7.43;2.20;;;;;;;11.60;60.72;99919.69;332765;28;16240;-70
2023/05/25 00:45:59;;;;;;;5.72;2.22;;;;;;;11.59;60.77;99923.19;334804;28;4949;-69
2023/05/25 00:46:13;;;;;;;6.00;2.42;;;;;;;11.59;60.25;99923.19;330798;28;18091;-68
2023/05/25 00:46:26;;;;;;;5.47;2.35;;;;;;;11.60;60.48;99930.09;332799;28;17780;-71
2023/05/25 00:46:43;;;;;;;4.70;2.38;;;;;;;11.58;60.05;99923.25;335653;28;4660;-68
2023/05/25 00:46:55;;;;;;;6.57;2.88;;;;;;;11.54;60.81;99930.28;332100;28;17949;-68
2023/05/25 00:47:07;;;;;;;7.63;3.00;;;;;;;11.54;60.58;99927.69;333528;28;4542;-68
2023/05/25 00:47:19;;;;;;;7.03;2.80;;;;;;;11.55;60.41;99931.13;335020;28;4679;-67
2023/05/25 00:47:32;;;;;;;9.35;2.58;;;;;;;11.54;60.65;99930.28;332988;28;18131;-68
2023/05/25 00:47:44;;;;;;;8.52;2.45;;;;;;;11.55;60.52;99926.81;335716;28;4618;-68
2023/05/25 00:47:58;;;;;;;8.27;2.50;;;;;;;11.53;60.82;99931.22;330651;28;18100;-68
2023/05/25 00:48:11;;;;;;;6.78;2.65;;;;;;;11.51;61.11;99930.41;332512;28;7453;-67
2023/05/25 00:48:25;;;;;;;7.82;2.83;;;;;;;11.52;61.00;99932.09;336260;28;4713;-67
2023/05/25 00:48:38;;;;;;;7.43;2.85;;;;;;;11.53;60.56;99932.94;332235;28;16531;-67
2023/05/25 00:48:55;;;;;;;5.93;2.60;;;;;;;11.51;60.31;99930.41;334463;28;4655;-68
2023/05/25 00:49:07;;;;;;;5.97;2.58;;;;;;;11.52;60.82;99926.88;333506;28;17909;-67
2023/05/25 00:49:21;;;;;;;6.93;2.50;;;;;;;11.51;60.84;99929.53;335320;28;4729;-70
2023/05/25 00:49:35;;;;;;;5.82;2.40;;;;;;;11.49;60.46;99932.22;333125;28;18178;-69
2023/05/25 00:49:47;;;;;;;5.07;2.60;;;;;;;11.45;60.71;99935.81;332899;28;18895;-69
2023/05/25 00:50:00;;;;;;;7.22;2.83;;;;;;;11.40;61.20;99932.50;334123;28;4665;-67
2023/05/25 00:50:14;;;;;;;7.13;2.85;;;;;;;11.38;61.33;99929.09;331814;28;16505;-68
2023/05/25 00:50:38;;;;;;;5.13;2.50;;;;;;;11.38;61.40;99934.28;332018;28;17858;-69
2023/05/25 00:50:53;;;;;;;5.93;2.55;;;;;;;11.38;61.77;99934.28;333005;28;17333;-70
2023/05/25 00:51:06;;;;;;;7.00;2.58;;;;;;;11.38;61.91;99934.28;331222;28;17624;-69
2023/05/25 00:51:18;;;;;;;6.20;2.33;;;;;;;11.37;61.62;99928.25;334514;28;4643;-69
2023/05/25 00:51:35;;;;;;;7.70;2.50;;;;;;;11.38;61.60;99934.28;334169;28;4664;-69
2023/05/25 00:51:47;;;;;;;8.60;2.90;;;;;;;11.36;61.45;99928.28;332189;28;17944;-68
2023/05/25 00:51:59;;;;;;;7.22;2.70;;;;;;;11.35;61.38;99934.41;334580;28;4939;-67
2023/05/25 00:52:13;;;;;;;6.60;2.60;;;;;;;11.33;61.57;99931.00;332791;28;18229;-69
2023/05/25 00:52:26;;;;;;;6.30;2.70;;;;;;;11.30;61.22;99933.69;332104;28;11306;-68
2023/05/25 00:52:38;;;;;;;6.38;2.75;;;;;;;11.31;61.46;99938.00;335791;28;4600;-69
2023/05/25 00:52:50;;;;;;;6.68;2.78;;;;;;;11.30;61.38;99936.28;334449;28;4760;-68
2023/05/25 00:53:05;;;;;;;7.90;2.60;;;;;;;11.30;61.78;99936.28;336962;28;4505;-69
2023/05/25 00:53:17;;;;;;;7.65;2.70;;;;;;;11.29;61.17;99934.56;334123;28;17668;-68
2023/05/25 00:53:32;;;;;;;6.40;2.65;;;;;;;11.28;61.43;99938.06;335707;28;4719;-68
2023/05/25 00:53:44;;;;;;;7.55;2.88;;;;;;;11.27;61.25;99936.34;333917;28;17672;-70
2023/05/25 00:53:56;;;;;;;8.15;3.00;;;;;;;11.26;61.52;99934.66;334155;28;17936;-67
2023/05/25 00:54:08;;;;;;;8.40;2.83;;;;;;;11.27;61.40;99925.94;336988;28;4550;-68
2023/05/25 00:54:21;;;;;;;8.27;2.85;;;;;;;11.28;61.33;99930.28;333636;28;10602;-68
2023/05/25 00:54:34;;;;;;;8.70;2.70;;;;;;;11.28;61.14;99927.66;336093;28;5553;-69
2023/05/25 00:54:50;;;;;;;7.23;2.80;;;;;;;11.27;61.99;99931.16;331309;28;18326;-67
2023/05/25 00:55:05;;;;;;;6.35;2.90;;;;;;;11.24;61.63;99931.25;331466;28;17636;-68
2023/05/25 00:55:19;;;;;;;7.53;2.60;;;;;;;11.23;61.56;99929.53;332506;28;18079;-68
2023/05/25 00:55:38;;;;;;;7.32;2.53;;;;;;;11.23;61.65;99934.75;332457;28;17992;-68
2023/05/25 00:56:14;;;;;;;5.82;2.72;;;;;;;11.23;62.13;99929.53;331829;28;17478;-68
2023/05/25 00:56:31;;;;;;;7.63;2.53;;;;;;;11.24;61.68;99929.50;330260;28;17357;-69
2023/05/25 00:56:49;;;;;;;5.43;2.38;;;;;;;11.24;61.85;99921.69;331605;28;17819;-67
2023/05/25 00:57:06;;;;;;;6.72;2.83;;;;;;;11.24;62.21;99923.47;330823;28;17797;-70
2023/05/25 00:57:21;;;;;;;6.88;2.88;;;;;;;11.23;62.42;99929.53;332078;28;18684;-70
2023/05/25 00:57:36;;;;;;;7.88;2.63;;;;;;;11.25;62.20;99930.34;331142;28;17883;-68
2023/05/25 00:57:51;;;;;;;7.82;2.70;;;;;;;11.26;62.19;99934.66;333373;28;19117;-68
2023/05/25 00:58:05;;;;;;;7.82;2.60;;;;;;;11.27;61.78;99928.56;332823;28;18284;-68
2023/05/25 00:58:20;;;;;;;7.90;2.50;;;;;;;11.27;61.78;99925.94;333320;28;17725;-68
2023/05/25 00:58:34;;;;;;;6.82;2.47;;;;;;;11.27;61.60;99931.16;332970;28;18006;-70
2023/05/25 00:58:50;;;;;;;7.15;2.50;;;;;;;11.24;61.13;99929.50;332246;28;17831;-67
2023/05/25 00:59:05;;;;;;;6.68;2.42;;;;;;;11.23;61.03;99934.75;333739;28;17894;-68
2023/05/25 00:59:48;;;;;;;7.53;2.40;;;;;;;11.24;61.14;99931.25;333550;28;16148;-68
2023/05/25 01:00:01;;;;;;;8.18;2.90;;;;;;;11.22;61.54;99928.72;331606;28;17713;-69
2023/05/25 01:00:15;;;;;;;7.72;2.90;;;;;;;11.24;61.71;99931.25;330735;28;18499;-67
2023/05/25 01:00:29;;;;;;;7.47;2.63;;;;;;;11.25;61.81;99933.81;331988;28;18282;-68
2023/05/25 01:00:44;;;;;;;7.38;2.53;;;;;;;11.24;61.88;99931.25;331952;28;17690;-68
2023/05/25 01:00:58;;;;;;;6.47;2.47;;;;;;;11.27;61.43;99931.16;331954;28;15887;-69
2023/05/25 01:01:14;;;;;;;6.32;2.25;;;;;;;11.19;61.35;99929.66;331055;28;5470;-68
2023/05/25 01:01:32;;;;;;;6.55;2.20;;;;;;;11.20;61.91;99930.50;331431;28;16196;-69
2023/05/25 01:01:46;;;;;;;6.57;2.70;;;;;;;11.24;61.68;99936.47;331181;28;18021;-69
2023/05/25 01:02:02;;;;;;;6.90;2.90;;;;;;;11.25;61.87;99932.94;332306;28;18172;-69
2023/05/25 01:02:16;;;;;;;6.32;2.75;;;;;;;11.27;61.36;99931.16;331117;28;19250;-70
2023/05/25 01:02:29;;;;;;;6.50;2.63;;;;;;;11.28;61.61;99932.88;330978;28;17757;-68
2023/05/25 01:02:43;;;;;;;7.60;2.67;;;;;;;11.29;61.90;99932.84;332092;28;9912;-68
2023/05/25 01:02:58;;;;;;;6.35;2.45;;;;;;;11.29;62.28;99934.56;331578;28;17485;-69
2023/05/25 01:03:20;;;;;;;5.30;2.33;;;;;;;11.30;62.41;99938.88;334629;28;4863;-69
2023/05/25 01:03:36;;;;;;;7.68;2.78;;;;;;;11.29;62.54;99940.66;330890;28;15243;-71
2023/05/25 01:03:53;;;;;;;6.10;2.55;;;;;;;11.31;62.22;99938.00;331255;28;17523;-68
2023/05/25 01:04:13;;;;;;;7.43;2.70;;;;;;;11.32;62.52;99934.47;331004;28;17608;-68